sensor_id;sensor_type;location;lat;lon;timestamp;P1;durP1;ratioP1;P2;durP2;ratioP2
55312;SDS011;46892;45.668;11.756;2023-04-12T00:02:23;19.60;;;13.07;;
55312;SDS011;46892;45.668;11.756;2023-04-12T00:04:51;18.07;;;13.90;;
55312;SDS011;46892;45.668;11.756;2023-04-12T00:07:20;20.53;;;13.97;;
55312;SDS011;46892;45.668;11.756;2023-04-12T00:09:49;19.63;;;14.13;;
55312;SDS011;46892;45.668;11.756;2023-04-12T00:12:15;18.60;;;13.57;;
55312;SDS011;46892;45.668;11.756;2023-04-12T00:14:43;22.10;;;14.77;;
55312;SDS011;46892;45.668;11.756;2023-04-12T00:17:09;22.13;;;14.53;;
55312;SDS011;46892;45.668;11.756;2023-04-12T00:19:35;19.87;;;14.30;;
55312;SDS011;46892;45.668;11.756;2023-04-12T00:22:08;21.73;;;14.60;;
55312;SDS011;46892;45.668;11.756;2023-04-12T00:24:36;18.10;;;13.67;;
55312;SDS011;46892;45.668;11.756;2023-04-12T00:27:03;19.03;;;13.43;;
55312;SDS011;46892;45.668;11.756;2023-04-12T00:29:30;17.93;;;13.77;;
55312;SDS011;46892;45.668;11.756;2023-04-12T00:31:56;19.43;;;14.13;;
55312;SDS011;46892;45.668;11.756;2023-04-12T00:34:23;17.97;;;13.43;;
55312;SDS011;46892;45.668;11.756;2023-04-12T00:36:49;18.87;;;14.43;;
55312;SDS011;46892;45.668;11.756;2023-04-12T00:39:15;19.40;;;14.93;;
55312;SDS011;46892;45.668;11.756;2023-04-12T00:41:41;20.87;;;14.90;;
55312;SDS011;46892;45.668;11.756;2023-04-12T00:44:06;18.30;;;13.53;;
55312;SDS011;46892;45.668;11.756;2023-04-12T00:46:32;21.07;;;14.77;;
55312;SDS011;46892;45.668;11.756;2023-04-12T00:48:58;24.53;;;16.50;;
55312;SDS011;46892;45.668;11.756;2023-04-12T00:51:24;24.33;;;16.03;;
55312;SDS011;46892;45.668;11.756;2023-04-12T00:53:54;22.77;;;16.10;;
55312;SDS011;46892;45.668;11.756;2023-04-12T00:56:24;20.10;;;14.27;;
55312;SDS011;46892;45.668;11.756;2023-04-12T00:58:51;20.37;;;14.97;;
55312;SDS011;46892;45.668;11.756;2023-04-12T01:01:17;21.40;;;15.03;;
55312;SDS011;46892;45.668;11.756;2023-04-12T01:03:44;21.60;;;15.37;;
55312;SDS011;46892;45.668;11.756;2023-04-12T01:06:23;19.53;;;14.13;;
55312;SDS011;46892;45.668;11.756;2023-04-12T01:09:11;20.23;;;14.57;;
55312;SDS011;46892;45.668;11.756;2023-04-12T01:12:07;19.65;;;13.63;;
55312;SDS011;46892;45.668;11.756;2023-04-12T01:14:52;21.83;;;15.37;;
55312;SDS011;46892;45.668;11.756;2023-04-12T01:17:27;19.67;;;14.73;;
55312;SDS011;46892;45.668;11.756;2023-04-12T01:20:04;19.83;;;14.70;;
55312;SDS011;46892;45.668;11.756;2023-04-12T01:28:16;22.73;;;15.77;;
55312;SDS011;46892;45.668;11.756;2023-04-12T01:30:46;20.43;;;14.83;;
55312;SDS011;46892;45.668;11.756;2023-04-12T01:33:15;24.50;;;14.53;;
55312;SDS011;46892;45.668;11.756;2023-04-12T01:35:42;18.33;;;13.67;;
55312;SDS011;46892;45.668;11.756;2023-04-12T01:38:09;17.57;;;13.20;;
55312;SDS011;46892;45.668;11.756;2023-04-12T01:40:35;18.30;;;13.67;;
55312;SDS011;46892;45.668;11.756;2023-04-12T01:43:05;19.30;;;14.60;;
55312;SDS011;46892;45.668;11.756;2023-04-12T01:45:34;21.08;;;14.60;;
55312;SDS011;46892;45.668;11.756;2023-04-12T01:48:00;22.43;;;14.33;;
55312;SDS011;46892;45.668;11.756;2023-04-12T01:55:38;20.93;;;14.57;;
55312;SDS011;46892;45.668;11.756;2023-04-12T01:58:06;19.73;;;13.93;;
55312;SDS011;46892;45.668;11.756;2023-04-12T02:00:35;18.53;;;13.97;;
55312;SDS011;46892;45.668;11.756;2023-04-12T02:03:03;20.40;;;14.20;;
55312;SDS011;46892;45.668;11.756;2023-04-12T02:05:30;19.07;;;14.37;;
55312;SDS011;46892;45.668;11.756;2023-04-12T02:07:57;19.43;;;13.67;;
55312;SDS011;46892;45.668;11.756;2023-04-12T02:10:29;18.93;;;13.90;;
55312;SDS011;46892;45.668;11.756;2023-04-12T02:12:59;19.00;;;14.47;;
55312;SDS011;46892;45.668;11.756;2023-04-12T02:15:28;20.13;;;13.87;;
55312;SDS011;46892;45.668;11.756;2023-04-12T02:17:54;17.93;;;13.87;;
55312;SDS011;46892;45.668;11.756;2023-04-12T02:20:20;20.53;;;14.80;;
55312;SDS011;46892;45.668;11.756;2023-04-12T02:22:48;19.63;;;14.43;;
55312;SDS011;46892;45.668;11.756;2023-04-12T02:25:14;19.53;;;13.50;;
55312;SDS011;46892;45.668;11.756;2023-04-12T02:27:41;20.17;;;15.13;;
55312;SDS011;46892;45.668;11.756;2023-04-12T02:30:08;19.37;;;13.43;;
55312;SDS011;46892;45.668;11.756;2023-04-12T02:32:33;19.03;;;13.20;;
55312;SDS011;46892;45.668;11.756;2023-04-12T02:35:08;19.93;;;13.70;;
55312;SDS011;46892;45.668;11.756;2023-04-12T02:37:34;21.73;;;15.00;;
55312;SDS011;46892;45.668;11.756;2023-04-12T02:40:01;20.17;;;13.60;;
55312;SDS011;46892;45.668;11.756;2023-04-12T02:42:29;19.60;;;14.17;;
55312;SDS011;46892;45.668;11.756;2023-04-12T02:44:55;18.47;;;13.27;;
55312;SDS011;46892;45.668;11.756;2023-04-12T02:47:21;17.70;;;12.53;;
55312;SDS011;46892;45.668;11.756;2023-04-12T02:49:52;20.70;;;14.03;;
55312;SDS011;46892;45.668;11.756;2023-04-12T02:52:18;18.77;;;14.23;;
55312;SDS011;46892;45.668;11.756;2023-04-12T02:54:43;20.40;;;14.67;;
55312;SDS011;46892;45.668;11.756;2023-04-12T02:57:09;20.27;;;14.10;;
55312;SDS011;46892;45.668;11.756;2023-04-12T03:02:05;21.43;;;14.30;;
55312;SDS011;46892;45.668;11.756;2023-04-12T03:04:31;23.23;;;16.20;;
55312;SDS011;46892;45.668;11.756;2023-04-12T03:06:57;25.70;;;16.03;;
55312;SDS011;46892;45.668;11.756;2023-04-12T03:09:23;24.10;;;16.17;;
55312;SDS011;46892;45.668;11.756;2023-04-12T03:11:49;24.93;;;16.17;;
55312;SDS011;46892;45.668;11.756;2023-04-12T03:14:15;25.80;;;17.37;;
55312;SDS011;46892;45.668;11.756;2023-04-12T03:16:41;20.77;;;15.00;;
55312;SDS011;46892;45.668;11.756;2023-04-12T03:19:07;23.13;;;15.87;;
55312;SDS011;46892;45.668;11.756;2023-04-12T03:21:33;22.53;;;15.83;;
55312;SDS011;46892;45.668;11.756;2023-04-12T03:23:59;21.60;;;15.63;;
55312;SDS011;46892;45.668;11.756;2023-04-12T03:26:25;22.27;;;16.43;;
55312;SDS011;46892;45.668;11.756;2023-04-12T03:29:00;20.47;;;15.60;;
55312;SDS011;46892;45.668;11.756;2023-04-12T03:33:58;24.50;;;16.37;;
55312;SDS011;46892;45.668;11.756;2023-04-12T03:36:24;21.27;;;14.73;;
55312;SDS011;46892;45.668;11.756;2023-04-12T03:38:51;21.03;;;14.83;;
55312;SDS011;46892;45.668;11.756;2023-04-12T03:41:17;19.50;;;13.87;;
55312;SDS011;46892;45.668;11.756;2023-04-12T03:43:43;23.50;;;14.47;;
55312;SDS011;46892;45.668;11.756;2023-04-12T03:46:08;20.57;;;13.93;;
55312;SDS011;46892;45.668;11.756;2023-04-12T03:48:34;21.60;;;15.53;;
55312;SDS011;46892;45.668;11.756;2023-04-12T03:51:00;23.77;;;16.27;;
55312;SDS011;46892;45.668;11.756;2023-04-12T03:53:36;25.83;;;16.20;;
55312;SDS011;46892;45.668;11.756;2023-04-12T03:56:02;22.37;;;15.37;;
55312;SDS011;46892;45.668;11.756;2023-04-12T03:58:28;24.27;;;16.17;;
55312;SDS011;46892;45.668;11.756;2023-04-12T04:00:55;21.73;;;15.23;;
55312;SDS011;46892;45.668;11.756;2023-04-12T04:03:21;23.30;;;16.53;;
55312;SDS011;46892;45.668;11.756;2023-04-12T04:05:50;20.97;;;15.10;;
55312;SDS011;46892;45.668;11.756;2023-04-12T04:08:16;23.53;;;14.47;;
55312;SDS011;46892;45.668;11.756;2023-04-12T04:10:42;23.27;;;16.43;;
55312;SDS011;46892;45.668;11.756;2023-04-12T04:13:08;24.27;;;17.17;;
55312;SDS011;46892;45.668;11.756;2023-04-12T04:15:34;22.27;;;16.00;;
55312;SDS011;46892;45.668;11.756;2023-04-12T04:18:00;20.93;;;15.57;;
55312;SDS011;46892;45.668;11.756;2023-04-12T04:20:25;26.97;;;17.20;;
55312;SDS011;46892;45.668;11.756;2023-04-12T04:22:51;26.63;;;15.63;;
55312;SDS011;46892;45.668;11.756;2023-04-12T04:25:17;22.27;;;15.83;;
55312;SDS011;46892;45.668;11.756;2023-04-12T04:27:43;22.87;;;16.50;;
55312;SDS011;46892;45.668;11.756;2023-04-12T04:30:10;25.00;;;15.70;;
55312;SDS011;46892;45.668;11.756;2023-04-12T04:32:37;26.10;;;16.57;;
55312;SDS011;46892;45.668;11.756;2023-04-12T04:35:03;21.90;;;16.03;;
55312;SDS011;46892;45.668;11.756;2023-04-12T04:37:29;24.50;;;16.00;;
55312;SDS011;46892;45.668;11.756;2023-04-12T04:39:55;24.93;;;16.10;;
55312;SDS011;46892;45.668;11.756;2023-04-12T04:42:22;23.23;;;16.53;;
55312;SDS011;46892;45.668;11.756;2023-04-12T04:44:48;24.13;;;17.13;;
55312;SDS011;46892;45.668;11.756;2023-04-12T04:47:24;26.60;;;17.20;;
55312;SDS011;46892;45.668;11.756;2023-04-12T04:49:49;25.83;;;16.33;;
55312;SDS011;46892;45.668;11.756;2023-04-12T04:52:15;31.67;;;18.40;;
55312;SDS011;46892;45.668;11.756;2023-04-12T04:54:42;69.07;;;32.57;;
55312;SDS011;46892;45.668;11.756;2023-04-12T04:57:07;56.10;;;27.07;;
55312;SDS011;46892;45.668;11.756;2023-04-12T04:59:35;31.23;;;21.37;;
55312;SDS011;46892;45.668;11.756;2023-04-12T05:02:01;27.17;;;18.67;;
55312;SDS011;46892;45.668;11.756;2023-04-12T05:04:27;25.33;;;17.63;;
55312;SDS011;46892;45.668;11.756;2023-04-12T05:06:53;27.93;;;18.67;;
55312;SDS011;46892;45.668;11.756;2023-04-12T05:09:18;26.73;;;18.63;;
55312;SDS011;46892;45.668;11.756;2023-04-12T05:11:44;27.07;;;17.53;;
55312;SDS011;46892;45.668;11.756;2023-04-12T05:14:10;26.50;;;18.83;;
55312;SDS011;46892;45.668;11.756;2023-04-12T05:16:36;26.47;;;19.47;;
55312;SDS011;46892;45.668;11.756;2023-04-12T05:19:02;26.17;;;19.40;;
55312;SDS011;46892;45.668;11.756;2023-04-12T05:21:27;25.17;;;18.40;;
55312;SDS011;46892;45.668;11.756;2023-04-12T05:23:53;24.97;;;17.57;;
55312;SDS011;46892;45.668;11.756;2023-04-12T05:26:19;33.30;;;21.60;;
55312;SDS011;46892;45.668;11.756;2023-04-12T05:28:45;35.07;;;21.83;;
55312;SDS011;46892;45.668;11.756;2023-04-12T05:31:11;30.30;;;20.43;;
55312;SDS011;46892;45.668;11.756;2023-04-12T05:33:37;25.77;;;17.77;;
55312;SDS011;46892;45.668;11.756;2023-04-12T05:36:03;28.03;;;18.63;;
55312;SDS011;46892;45.668;11.756;2023-04-12T05:38:29;28.80;;;19.13;;
55312;SDS011;46892;45.668;11.756;2023-04-12T05:40:55;28.57;;;19.90;;
55312;SDS011;46892;45.668;11.756;2023-04-12T05:43:20;25.80;;;18.27;;
55312;SDS011;46892;45.668;11.756;2023-04-12T05:45:46;27.20;;;18.00;;
55312;SDS011;46892;45.668;11.756;2023-04-12T05:48:14;28.07;;;19.60;;
55312;SDS011;46892;45.668;11.756;2023-04-12T05:50:40;28.47;;;19.27;;
55312;SDS011;46892;45.668;11.756;2023-04-12T05:53:05;26.53;;;19.23;;
55312;SDS011;46892;45.668;11.756;2023-04-12T05:55:31;25.60;;;17.47;;
55312;SDS011;46892;45.668;11.756;2023-04-12T05:57:57;24.07;;;17.93;;
55312;SDS011;46892;45.668;11.756;2023-04-12T06:00:22;23.87;;;17.33;;
55312;SDS011;46892;45.668;11.756;2023-04-12T06:02:48;25.97;;;16.90;;
55312;SDS011;46892;45.668;11.756;2023-04-12T06:05:14;25.43;;;16.93;;
55312;SDS011;46892;45.668;11.756;2023-04-12T06:07:43;24.87;;;18.33;;
55312;SDS011;46892;45.668;11.756;2023-04-12T06:10:13;29.63;;;17.93;;
55312;SDS011;46892;45.668;11.756;2023-04-12T06:12:43;24.63;;;17.92;;
55312;SDS011;46892;45.668;11.756;2023-04-12T06:15:09;24.30;;;18.00;;
55312;SDS011;46892;45.668;11.756;2023-04-12T06:17:35;30.47;;;18.10;;
55312;SDS011;46892;45.668;11.756;2023-04-12T06:20:04;26.63;;;18.87;;
55312;SDS011;46892;45.668;11.756;2023-04-12T06:22:34;23.83;;;18.33;;
55312;SDS011;46892;45.668;11.756;2023-04-12T06:25:00;24.80;;;17.30;;
55312;SDS011;46892;45.668;11.756;2023-04-12T06:27:26;25.13;;;18.83;;
55312;SDS011;46892;45.668;11.756;2023-04-12T06:29:51;25.03;;;17.37;;
55312;SDS011;46892;45.668;11.756;2023-04-12T06:32:17;26.60;;;18.43;;
55312;SDS011;46892;45.668;11.756;2023-04-12T06:34:43;27.53;;;18.23;;
55312;SDS011;46892;45.668;11.756;2023-04-12T06:37:09;27.13;;;17.77;;
55312;SDS011;46892;45.668;11.756;2023-04-12T06:39:34;23.97;;;16.93;;
55312;SDS011;46892;45.668;11.756;2023-04-12T06:42:01;23.63;;;16.67;;
55312;SDS011;46892;45.668;11.756;2023-04-12T06:44:27;25.97;;;17.50;;
55312;SDS011;46892;45.668;11.756;2023-04-12T06:46:52;30.67;;;19.50;;
55312;SDS011;46892;45.668;11.756;2023-04-12T06:49:18;24.67;;;18.97;;
55312;SDS011;46892;45.668;11.756;2023-04-12T06:51:44;25.13;;;18.33;;
55312;SDS011;46892;45.668;11.756;2023-04-12T06:54:10;30.37;;;21.40;;
55312;SDS011;46892;45.668;11.756;2023-04-12T06:56:36;26.60;;;19.53;;
55312;SDS011;46892;45.668;11.756;2023-04-12T06:59:02;26.53;;;18.57;;
55312;SDS011;46892;45.668;11.756;2023-04-12T07:01:28;24.43;;;17.03;;
55312;SDS011;46892;45.668;11.756;2023-04-12T07:03:53;23.20;;;17.13;;
55312;SDS011;46892;45.668;11.756;2023-04-12T07:06:19;22.50;;;16.83;;
55312;SDS011;46892;45.668;11.756;2023-04-12T07:08:45;22.57;;;15.80;;
55312;SDS011;46892;45.668;11.756;2023-04-12T07:11:10;23.20;;;16.60;;
55312;SDS011;46892;45.668;11.756;2023-04-12T07:13:36;21.10;;;14.80;;
55312;SDS011;46892;45.668;11.756;2023-04-12T07:16:02;20.40;;;14.63;;
55312;SDS011;46892;45.668;11.756;2023-04-12T07:18:28;19.67;;;14.80;;
55312;SDS011;46892;45.668;11.756;2023-04-12T07:20:54;23.53;;;14.90;;
55312;SDS011;46892;45.668;11.756;2023-04-12T07:23:21;20.23;;;14.13;;
55312;SDS011;46892;45.668;11.756;2023-04-12T07:25:47;20.27;;;14.03;;
55312;SDS011;46892;45.668;11.756;2023-04-12T07:28:13;20.77;;;14.67;;
55312;SDS011;46892;45.668;11.756;2023-04-12T07:30:38;18.83;;;13.13;;
55312;SDS011;46892;45.668;11.756;2023-04-12T07:33:04;20.30;;;13.90;;
55312;SDS011;46892;45.668;11.756;2023-04-12T07:35:31;19.47;;;12.67;;
55312;SDS011;46892;45.668;11.756;2023-04-12T07:37:57;26.00;;;11.97;;
55312;SDS011;46892;45.668;11.756;2023-04-12T07:40:23;21.27;;;10.97;;
55312;SDS011;46892;45.668;11.756;2023-04-12T07:42:49;20.57;;;11.30;;
55312;SDS011;46892;45.668;11.756;2023-04-12T07:45:15;22.17;;;11.53;;
55312;SDS011;46892;45.668;11.756;2023-04-12T07:47:41;22.93;;;10.63;;
55312;SDS011;46892;45.668;11.756;2023-04-12T07:50:07;15.10;;;8.83;;
55312;SDS011;46892;45.668;11.756;2023-04-12T07:52:33;18.00;;;8.93;;
55312;SDS011;46892;45.668;11.756;2023-04-12T07:54:59;14.30;;;7.77;;
55312;SDS011;46892;45.668;11.756;2023-04-12T07:57:25;12.07;;;7.47;;
55312;SDS011;46892;45.668;11.756;2023-04-12T07:59:51;15.43;;;8.23;;
55312;SDS011;46892;45.668;11.756;2023-04-12T08:02:17;13.43;;;8.60;;
55312;SDS011;46892;45.668;11.756;2023-04-12T08:04:49;12.30;;;8.00;;
55312;SDS011;46892;45.668;11.756;2023-04-12T08:07:15;11.20;;;7.97;;
55312;SDS011;46892;45.668;11.756;2023-04-12T08:09:41;13.60;;;7.70;;
55312;SDS011;46892;45.668;11.756;2023-04-12T08:12:06;12.40;;;7.93;;
55312;SDS011;46892;45.668;11.756;2023-04-12T08:14:32;12.37;;;8.57;;
55312;SDS011;46892;45.668;11.756;2023-04-12T08:16:58;14.57;;;7.77;;
55312;SDS011;46892;45.668;11.756;2023-04-12T08:19:24;13.33;;;8.70;;
55312;SDS011;46892;45.668;11.756;2023-04-12T08:21:50;12.70;;;8.77;;
55312;SDS011;46892;45.668;11.756;2023-04-12T08:24:16;12.87;;;8.20;;
55312;SDS011;46892;45.668;11.756;2023-04-12T08:26:42;14.30;;;8.17;;
55312;SDS011;46892;45.668;11.756;2023-04-12T08:29:08;11.13;;;7.50;;
55312;SDS011;46892;45.668;11.756;2023-04-12T08:31:33;12.73;;;7.13;;
55312;SDS011;46892;45.668;11.756;2023-04-12T08:33:59;9.83;;;6.53;;
55312;SDS011;46892;45.668;11.756;2023-04-12T08:36:25;10.03;;;6.83;;
55312;SDS011;46892;45.668;11.756;2023-04-12T08:38:51;10.37;;;6.57;;
55312;SDS011;46892;45.668;11.756;2023-04-12T08:41:19;10.83;;;7.03;;
55312;SDS011;46892;45.668;11.756;2023-04-12T08:43:46;11.80;;;8.13;;
55312;SDS011;46892;45.668;11.756;2023-04-12T08:46:13;14.53;;;7.23;;
55312;SDS011;46892;45.668;11.756;2023-04-12T08:48:40;11.17;;;7.13;;
55312;SDS011;46892;45.668;11.756;2023-04-12T08:51:13;8.73;;;6.30;;
55312;SDS011;46892;45.668;11.756;2023-04-12T08:53:41;9.70;;;6.40;;
55312;SDS011;46892;45.668;11.756;2023-04-12T08:56:10;10.03;;;6.67;;
55312;SDS011;46892;45.668;11.756;2023-04-12T08:58:41;10.47;;;6.20;;
55312;SDS011;46892;45.668;11.756;2023-04-12T09:01:10;9.73;;;6.67;;
55312;SDS011;46892;45.668;11.756;2023-04-12T09:03:38;10.33;;;6.83;;
55312;SDS011;46892;45.668;11.756;2023-04-12T09:06:04;13.13;;;6.23;;
55312;SDS011;46892;45.668;11.756;2023-04-12T09:08:30;8.67;;;6.70;;
55312;SDS011;46892;45.668;11.756;2023-04-12T09:10:56;9.47;;;5.97;;
55312;SDS011;46892;45.668;11.756;2023-04-12T09:13:34;8.63;;;5.73;;
55312;SDS011;46892;45.668;11.756;2023-04-12T09:16:01;8.53;;;6.20;;
55312;SDS011;46892;45.668;11.756;2023-04-12T09:18:27;8.63;;;6.27;;
55312;SDS011;46892;45.668;11.756;2023-04-12T09:21:06;10.93;;;7.03;;
55312;SDS011;46892;45.668;11.756;2023-04-12T09:23:32;9.38;;;6.80;;
55312;SDS011;46892;45.668;11.756;2023-04-12T09:26:01;9.53;;;6.50;;
55312;SDS011;46892;45.668;11.756;2023-04-12T09:28:28;10.57;;;6.60;;
55312;SDS011;46892;45.668;11.756;2023-04-12T09:30:58;10.80;;;6.50;;
55312;SDS011;46892;45.668;11.756;2023-04-12T09:36:03;9.93;;;7.37;;
55312;SDS011;46892;45.668;11.756;2023-04-12T09:38:31;10.03;;;6.60;;
55312;SDS011;46892;45.668;11.756;2023-04-12T09:41:13;12.47;;;6.77;;
55312;SDS011;46892;45.668;11.756;2023-04-12T09:43:41;11.23;;;6.63;;
55312;SDS011;46892;45.668;11.756;2023-04-12T09:46:10;11.13;;;6.57;;
55312;SDS011;46892;45.668;11.756;2023-04-12T09:51:06;13.80;;;7.27;;
55312;SDS011;46892;45.668;11.756;2023-04-12T09:53:35;9.47;;;6.53;;
55312;SDS011;46892;45.668;11.756;2023-04-12T09:56:05;11.67;;;6.83;;
55312;SDS011;46892;45.668;11.756;2023-04-12T09:58:33;10.10;;;6.50;;
55312;SDS011;46892;45.668;11.756;2023-04-12T10:01:01;10.43;;;7.33;;
55312;SDS011;46892;45.668;11.756;2023-04-12T10:03:28;13.13;;;6.67;;
55312;SDS011;46892;45.668;11.756;2023-04-12T10:05:54;13.63;;;7.20;;
55312;SDS011;46892;45.668;11.756;2023-04-12T10:08:23;10.87;;;7.70;;
55312;SDS011;46892;45.668;11.756;2023-04-12T10:10:50;12.48;;;7.95;;
55312;SDS011;46892;45.668;11.756;2023-04-12T10:13:17;12.60;;;8.13;;
55312;SDS011;46892;45.668;11.756;2023-04-12T10:15:44;12.87;;;7.03;;
55312;SDS011;46892;45.668;11.756;2023-04-12T10:18:13;10.57;;;6.90;;
55312;SDS011;46892;45.668;11.756;2023-04-12T10:20:42;11.07;;;7.60;;
55312;SDS011;46892;45.668;11.756;2023-04-12T10:23:08;10.97;;;7.43;;
55312;SDS011;46892;45.668;11.756;2023-04-12T10:25:34;9.40;;;6.60;;
55312;SDS011;46892;45.668;11.756;2023-04-12T10:28:14;9.88;;;6.82;;
55312;SDS011;46892;45.668;11.756;2023-04-12T10:30:42;10.50;;;6.43;;
55312;SDS011;46892;45.668;11.756;2023-04-12T10:35:50;11.83;;;6.60;;
55312;SDS011;46892;45.668;11.756;2023-04-12T10:38:43;9.13;;;6.20;;
55312;SDS011;46892;45.668;11.756;2023-04-12T10:41:31;7.90;;;6.30;;
55312;SDS011;46892;45.668;11.756;2023-04-12T10:44:22;9.20;;;5.90;;
55312;SDS011;46892;45.668;11.756;2023-04-12T10:46:49;10.07;;;6.07;;
55312;SDS011;46892;45.668;11.756;2023-04-12T10:49:15;10.83;;;6.33;;
55312;SDS011;46892;45.668;11.756;2023-04-12T10:56:55;11.10;;;7.60;;
55312;SDS011;46892;45.668;11.756;2023-04-12T10:59:21;11.23;;;7.60;;
55312;SDS011;46892;45.668;11.756;2023-04-12T11:04:31;8.43;;;6.40;;
55312;SDS011;46892;45.668;11.756;2023-04-12T11:07:15;9.97;;;6.70;;
55312;SDS011;46892;45.668;11.756;2023-04-12T11:09:43;9.77;;;6.70;;
55312;SDS011;46892;45.668;11.756;2023-04-12T11:12:14;10.00;;;6.25;;
55312;SDS011;46892;45.668;11.756;2023-04-12T11:14:47;9.93;;;6.97;;
55312;SDS011;46892;45.668;11.756;2023-04-12T11:19:41;8.17;;;5.60;;
55312;SDS011;46892;45.668;11.756;2023-04-12T11:22:09;8.73;;;4.73;;
55312;SDS011;46892;45.668;11.756;2023-04-12T11:24:39;8.07;;;5.60;;
55312;SDS011;46892;45.668;11.756;2023-04-12T11:27:09;9.83;;;5.37;;
55312;SDS011;46892;45.668;11.756;2023-04-12T11:29:35;8.40;;;5.83;;
55312;SDS011;46892;45.668;11.756;2023-04-12T11:32:02;8.20;;;5.67;;
55312;SDS011;46892;45.668;11.756;2023-04-12T11:34:31;7.83;;;5.53;;
55312;SDS011;46892;45.668;11.756;2023-04-12T11:36:58;8.15;;;5.38;;
55312;SDS011;46892;45.668;11.756;2023-04-12T11:39:24;9.03;;;5.07;;
55312;SDS011;46892;45.668;11.756;2023-04-12T11:41:51;9.03;;;5.40;;
55312;SDS011;46892;45.668;11.756;2023-04-12T11:44:17;6.40;;;4.50;;
55312;SDS011;46892;45.668;11.756;2023-04-12T11:46:43;6.77;;;5.30;;
55312;SDS011;46892;45.668;11.756;2023-04-12T11:49:13;8.10;;;5.30;;
55312;SDS011;46892;45.668;11.756;2023-04-12T11:54:06;7.20;;;4.53;;
55312;SDS011;46892;45.668;11.756;2023-04-12T11:56:32;6.37;;;4.73;;
55312;SDS011;46892;45.668;11.756;2023-04-12T11:58:57;7.60;;;5.50;;
55312;SDS011;46892;45.668;11.756;2023-04-12T12:01:23;8.13;;;4.47;;
55312;SDS011;46892;45.668;11.756;2023-04-12T12:03:51;7.07;;;4.30;;
55312;SDS011;46892;45.668;11.756;2023-04-12T12:06:17;5.03;;;3.63;;
55312;SDS011;46892;45.668;11.756;2023-04-12T12:08:44;6.63;;;4.30;;
55312;SDS011;46892;45.668;11.756;2023-04-12T12:11:10;5.60;;;3.77;;
55312;SDS011;46892;45.668;11.756;2023-04-12T12:13:43;4.77;;;3.10;;
55312;SDS011;46892;45.668;11.756;2023-04-12T12:16:13;5.33;;;3.60;;
55312;SDS011;46892;45.668;11.756;2023-04-12T12:18:40;6.77;;;4.50;;
55312;SDS011;46892;45.668;11.756;2023-04-12T12:21:09;6.55;;;4.53;;
55312;SDS011;46892;45.668;11.756;2023-04-12T12:23:40;6.95;;;4.80;;
55312;SDS011;46892;45.668;11.756;2023-04-12T12:26:07;7.43;;;5.33;;
55312;SDS011;46892;45.668;11.756;2023-04-12T12:28:39;7.93;;;4.30;;
55312;SDS011;46892;45.668;11.756;2023-04-12T12:31:05;7.20;;;4.80;;
55312;SDS011;46892;45.668;11.756;2023-04-12T12:33:37;6.77;;;4.40;;
55312;SDS011;46892;45.668;11.756;2023-04-12T12:36:04;7.13;;;4.43;;
55312;SDS011;46892;45.668;11.756;2023-04-12T12:38:34;9.03;;;4.50;;
55312;SDS011;46892;45.668;11.756;2023-04-12T12:41:20;7.03;;;4.80;;
55312;SDS011;46892;45.668;11.756;2023-04-12T12:43:50;8.10;;;4.87;;
55312;SDS011;46892;45.668;11.756;2023-04-12T12:46:17;8.60;;;5.63;;
55312;SDS011;46892;45.668;11.756;2023-04-12T12:48:44;9.00;;;5.37;;
55312;SDS011;46892;45.668;11.756;2023-04-12T12:51:11;9.07;;;5.87;;
55312;SDS011;46892;45.668;11.756;2023-04-12T12:53:38;9.57;;;6.03;;
55312;SDS011;46892;45.668;11.756;2023-04-12T12:56:04;9.80;;;5.27;;
55312;SDS011;46892;45.668;11.756;2023-04-12T12:58:31;8.17;;;5.60;;
55312;SDS011;46892;45.668;11.756;2023-04-12T13:00:58;8.63;;;5.43;;
55312;SDS011;46892;45.668;11.756;2023-04-12T13:03:24;7.60;;;5.40;;
55312;SDS011;46892;45.668;11.756;2023-04-12T13:05:49;8.07;;;5.23;;
55312;SDS011;46892;45.668;11.756;2023-04-12T13:08:15;9.03;;;5.77;;
55312;SDS011;46892;45.668;11.756;2023-04-12T13:10:41;8.50;;;5.50;;
55312;SDS011;46892;45.668;11.756;2023-04-12T13:13:07;7.53;;;4.97;;
55312;SDS011;46892;45.668;11.756;2023-04-12T13:15:33;9.10;;;5.33;;
55312;SDS011;46892;45.668;11.756;2023-04-12T13:17:58;7.17;;;5.20;;
55312;SDS011;46892;45.668;11.756;2023-04-12T13:20:24;9.13;;;5.73;;
55312;SDS011;46892;45.668;11.756;2023-04-12T13:22:51;9.87;;;5.80;;
55312;SDS011;46892;45.668;11.756;2023-04-12T13:25:17;12.87;;;5.90;;
55312;SDS011;46892;45.668;11.756;2023-04-12T13:27:44;9.00;;;5.50;;
55312;SDS011;46892;45.668;11.756;2023-04-12T13:30:10;8.93;;;5.57;;
55312;SDS011;46892;45.668;11.756;2023-04-12T13:32:36;8.37;;;5.90;;
55312;SDS011;46892;45.668;11.756;2023-04-12T13:35:02;9.20;;;5.63;;
55312;SDS011;46892;45.668;11.756;2023-04-12T13:37:29;10.50;;;5.77;;
55312;SDS011;46892;45.668;11.756;2023-04-12T13:39:55;9.53;;;5.63;;
55312;SDS011;46892;45.668;11.756;2023-04-12T13:42:21;8.77;;;5.03;;
55312;SDS011;46892;45.668;11.756;2023-04-12T13:44:47;9.20;;;5.10;;
55312;SDS011;46892;45.668;11.756;2023-04-12T13:47:13;11.10;;;5.43;;
55312;SDS011;46892;45.668;11.756;2023-04-12T13:49:39;9.60;;;5.00;;
55312;SDS011;46892;45.668;11.756;2023-04-12T13:52:05;8.23;;;4.90;;
55312;SDS011;46892;45.668;11.756;2023-04-12T13:54:31;8.27;;;5.07;;
55312;SDS011;46892;45.668;11.756;2023-04-12T13:56:57;9.90;;;5.40;;
55312;SDS011;46892;45.668;11.756;2023-04-12T13:59:23;11.00;;;5.10;;
55312;SDS011;46892;45.668;11.756;2023-04-12T14:01:52;9.90;;;5.13;;
55312;SDS011;46892;45.668;11.756;2023-04-12T14:04:18;7.47;;;4.73;;
55312;SDS011;46892;45.668;11.756;2023-04-12T14:06:44;9.63;;;5.13;;
55312;SDS011;46892;45.668;11.756;2023-04-12T14:09:26;8.10;;;4.90;;
55312;SDS011;46892;45.668;11.756;2023-04-12T14:11:54;12.83;;;7.10;;
55312;SDS011;46892;45.668;11.756;2023-04-12T14:14:22;10.33;;;6.80;;
55312;SDS011;46892;45.668;11.756;2023-04-12T14:16:49;9.53;;;5.30;;
55312;SDS011;46892;45.668;11.756;2023-04-12T14:19:17;10.33;;;5.30;;
55312;SDS011;46892;45.668;11.756;2023-04-12T14:21:46;8.20;;;5.20;;
55312;SDS011;46892;45.668;11.756;2023-04-12T14:24:13;8.27;;;5.30;;
55312;SDS011;46892;45.668;11.756;2023-04-12T14:26:42;9.37;;;5.90;;
55312;SDS011;46892;45.668;11.756;2023-04-12T14:29:07;9.20;;;6.10;;
55312;SDS011;46892;45.668;11.756;2023-04-12T14:31:33;11.90;;;6.47;;
55312;SDS011;46892;45.668;11.756;2023-04-12T14:34:03;9.67;;;6.20;;
55312;SDS011;46892;45.668;11.756;2023-04-12T14:36:29;16.40;;;6.43;;
55312;SDS011;46892;45.668;11.756;2023-04-12T14:38:57;12.37;;;6.40;;
55312;SDS011;46892;45.668;11.756;2023-04-12T14:41:22;10.30;;;6.10;;
55312;SDS011;46892;45.668;11.756;2023-04-12T14:43:48;10.67;;;7.20;;
55312;SDS011;46892;45.668;11.756;2023-04-12T14:46:15;13.40;;;6.23;;
55312;SDS011;46892;45.668;11.756;2023-04-12T14:48:41;14.23;;;8.67;;
55312;SDS011;46892;45.668;11.756;2023-04-12T14:51:08;14.60;;;7.27;;
55312;SDS011;46892;45.668;11.756;2023-04-12T14:53:34;12.70;;;7.23;;
55312;SDS011;46892;45.668;11.756;2023-04-12T14:55:59;15.00;;;6.50;;
55312;SDS011;46892;45.668;11.756;2023-04-12T14:58:26;10.40;;;6.23;;